Time,TemperatureF,DewpointF,PressureIn,WindDirection,WindDirectionDegrees,WindSpeedMPH,WindSpeedGustMPH,Humidity,HourlyPrecipIn,Conditions,Clouds,dailyrainin,SoftwareType,DateUTC
2013-06-11 00:02:00,61.1,59.4,29.78,ESE,117,2.0,2.0,94,0.00,,,0.00,VWS V14.01,2013-06-11 05:02:00,
2013-06-11 00:07:00,60.8,59.1,29.79,ESE,120,1.0,2.0,94,0.00,,,0.00,VWS V14.01,2013-06-11 05:07:00,
2013-06-11 00:12:00,60.8,59.4,29.79,ESE,120,0.0,2.0,95,0.00,,,0.00,VWS V14.01,2013-06-11 05:12:00,
2013-06-11 00:17:00,60.9,59.2,29.79,WSW,252,0.0,2.0,94,0.00,,,0.00,VWS V14.01,2013-06-11 05:17:00,
2013-06-11 00:22:00,60.9,59.5,29.79,WSW,252,0.0,2.0,95,0.00,,,0.00,VWS V14.01,2013-06-11 05:22:00,
2013-06-11 00:27:00,60.8,59.4,29.79,West,260,1.0,2.0,95,0.00,,,0.00,VWS V14.01,2013-06-11 05:27:00,
2013-06-11 00:32:00,60.7,59.3,29.79,West,260,0.0,1.0,95,0.00,,SCT110,0.00,VWS V14.01,2013-06-11 05:32:00,
2013-06-11 00:37:00,60.7,59.3,29.79,West,260,0.0,1.0,95,0.00,,SCT110,0.00,VWS V14.01,2013-06-11 05:37:00,
2013-06-11 00:42:00,60.6,59.2,29.80,West,260,1.0,1.0,95,0.00,,SCT110,0.00,VWS V14.01,2013-06-11 05:42:00,
2013-06-11 00:47:00,60.6,59.2,29.80,West,266,0.0,1.0,95,0.00,,SCT110,0.00,VWS V14.01,2013-06-11 05:47:00,
2013-06-11 00:52:00,60.7,59.3,29.80,WSW,257,1.0,2.0,95,0.00,,BKN120,0.00,VWS V14.01,2013-06-11 05:52:00,
2013-06-11 00:57:00,60.7,59.3,29.80,West,259,1.0,2.0,95,0.00,,BKN120,0.00,VWS V14.01,2013-06-11 05:57:00,
2013-06-11 01:02:00,60.7,59.3,29.80,WNW,282,0.0,1.0,95,0.00,,BKN120,0.00,VWS V14.01,2013-06-11 06:02:00,
2013-06-11 01:07:00,60.7,59.3,29.80,WNW,283,0.0,1.0,95,0.00,,BKN120,0.00,VWS V14.01,2013-06-11 06:07:00,
2013-06-11 01:12:00,60.6,59.2,29.80,West,281,0.0,1.0,95,0.00,,BKN120,0.00,VWS V14.01,2013-06-11 06:12:00,
2013-06-11 01:17:00,60.5,59.1,29.80,West,281,0.0,1.0,95,0.00,,BKN120,0.00,VWS V14.01,2013-06-11 06:17:00,
2013-06-11 01:22:00,60.5,59.1,29.80,West,281,1.0,2.0,95,0.00,,BKN120,0.00,VWS V14.01,2013-06-11 06:22:00,
2013-06-11 01:27:00,60.3,58.9,29.80,WNW,284,0.0,2.0,95,0.00,,BKN120,0.00,VWS V14.01,2013-06-11 06:27:00,
2013-06-11 01:32:00,60.2,58.8,29.80,WNW,284,0.0,0.0,95,0.00,,,0.00,VWS V14.01,2013-06-11 06:32:00,
2013-06-11 01:37:00,60.1,59.0,29.80,WNW,284,0.0,0.0,96,0.00,,,0.00,VWS V14.01,2013-06-11 06:37:00,
2013-06-11 01:42:00,60.1,59.0,29.81,WNW,284,0.0,0.0,96,0.00,,,0.00,VWS V14.01,2013-06-11 06:42:00,
2013-06-11 01:47:00,60.1,59.0,29.80,WNW,283,0.0,0.0,96,0.00,,,0.00,VWS V14.01,2013-06-11 06:47:00,
2013-06-11 01:52:00,60.0,58.9,29.80,WNW,284,0.0,0.0,96,0.00,,,0.00,VWS V14.01,2013-06-11 06:52:00,
2013-06-11 01:57:00,59.9,58.8,29.81,WNW,284,0.0,0.0,96,0.00,,,0.00,VWS V14.01,2013-06-11 06:57:00,
2013-06-11 02:02:00,59.9,58.8,29.80,WNW,283,0.0,0.0,96,0.00,,,0.00,VWS V14.01,2013-06-11 07:02:00,
2013-06-11 02:07:00,59.7,58.6,29.80,WNW,284,0.0,0.0,96,0.00,,,0.00,VWS V14.01,2013-06-11 07:07:00,
2013-06-11 02:12:00,59.5,58.4,29.80,WNW,284,0.0,0.0,96,0.00,,,0.00,VWS V14.01,2013-06-11 07:12:00,
2013-06-11 02:17:00,59.3,58.2,29.80,WNW,283,0.0,0.0,96,0.00,,,0.00,VWS V14.01,2013-06-11 07:17:00,
2013-06-11 02:22:00,59.3,58.5,29.80,WNW,284,0.0,0.0,97,0.00,,,0.00,VWS V14.01,2013-06-11 07:22:00,
2013-06-11 02:27:00,59.3,58.5,29.81,WNW,284,0.0,0.0,97,0.00,,,0.00,VWS V14.01,2013-06-11 07:27:00,
2013-06-11 02:32:00,59.2,58.3,29.81,WNW,283,0.0,0.0,97,0.00,,,0.00,VWS V14.01,2013-06-11 07:32:00,
2013-06-11 02:37:00,59.2,58.3,29.81,WNW,284,0.0,0.0,97,0.00,,,0.00,VWS V14.01,2013-06-11 07:37:00,
2013-06-11 02:42:00,59.2,58.3,29.80,WNW,284,0.0,0.0,97,0.00,,,0.00,VWS V14.01,2013-06-11 07:42:00,
2013-06-11 02:47:00,59.1,58.2,29.80,WNW,284,0.0,0.0,97,0.00,,,0.00,VWS V14.01,2013-06-11 07:47:00,
2013-06-11 02:52:00,58.9,58.0,29.80,WNW,284,0.0,0.0,97,0.00,,,0.00,VWS V14.01,2013-06-11 07:52:00,
2013-06-11 02:57:00,58.9,58.0,29.80,WNW,284,0.0,0.0,97,0.00,,,0.00,VWS V14.01,2013-06-11 07:57:00,
2013-06-11 03:02:00,58.8,58.0,29.80,WNW,284,0.0,0.0,97,0.00,,,0.00,VWS V14.01,2013-06-11 08:02:00,
2013-06-11 03:07:00,58.7,57.8,29.80,WNW,283,0.0,1.0,97,0.00,,,0.00,VWS V14.01,2013-06-11 08:07:00,
2013-06-11 03:12:00,58.7,57.8,29.79,WNW,284,0.0,1.0,97,0.00,,,0.00,VWS V14.01,2013-06-11 08:12:00,
2013-06-11 03:17:00,59.0,58.4,29.80,WNW,283,0.0,1.0,98,0.00,,,0.00,VWS V14.01,2013-06-11 08:17:00,
2013-06-11 03:22:00,59.0,58.2,29.80,WNW,284,0.0,1.0,97,0.00,,,0.00,VWS V14.01,2013-06-11 08:22:00,
2013-06-11 03:27:00,58.7,57.8,29.80,WNW,284,0.0,1.0,97,0.00,,,0.00,VWS V14.01,2013-06-11 08:27:00,
2013-06-11 03:32:00,58.2,57.4,29.80,WNW,284,0.0,0.0,97,0.00,,,0.00,VWS V14.01,2013-06-11 08:32:00,
2013-06-11 03:37:00,57.9,57.1,29.81,WNW,284,0.0,1.0,97,0.00,,SCT120,0.00,VWS V14.01,2013-06-11 08:37:00,
2013-06-11 03:42:00,57.6,56.8,29.80,WNW,284,0.0,1.0,97,0.00,,SCT120,0.00,VWS V14.01,2013-06-11 08:42:00,
2013-06-11 03:47:00,57.6,57.0,29.80,WNW,284,0.0,1.0,98,0.00,,SCT120,0.00,VWS V14.01,2013-06-11 08:47:00,
2013-06-11 03:52:00,57.8,57.2,29.80,WNW,283,0.0,1.0,98,0.00,,SCT120,0.00,VWS V14.01,2013-06-11 08:52:00,
2013-06-11 03:57:00,57.8,57.2,29.80,WNW,284,0.0,1.0,98,0.00,,SCT120,0.00,VWS V14.01,2013-06-11 08:57:00,
2013-06-11 04:02:00,57.6,57.0,29.80,WNW,283,0.0,0.0,98,0.00,,SCT120,0.00,VWS V14.01,2013-06-11 09:02:00,
2013-06-11 04:07:00,57.6,57.0,29.80,WNW,284,0.0,0.0,98,0.00,,SCT120,0.00,VWS V14.01,2013-06-11 09:07:00,
2013-06-11 04:12:00,57.5,56.9,29.80,WNW,284,0.0,0.0,98,0.00,,SCT120,0.00,VWS V14.01,2013-06-11 09:12:00,
2013-06-11 04:17:00,57.7,57.1,29.80,WNW,284,0.0,0.0,98,0.00,,SCT120,0.00,VWS V14.01,2013-06-11 09:17:00,
2013-06-11 04:22:00,57.8,57.2,29.80,WNW,284,0.0,0.0,98,0.00,,SCT120,0.00,VWS V14.01,2013-06-11 09:22:00,
2013-06-11 04:27:00,57.7,57.1,29.80,WNW,284,0.0,0.0,98,0.00,,SCT120,0.00,VWS V14.01,2013-06-11 09:27:00,
2013-06-11 04:32:00,57.5,56.9,29.81,WNW,284,0.0,0.0,98,0.00,,,0.00,VWS V14.01,2013-06-11 09:32:00,
2013-06-11 04:37:00,56.9,56.1,29.81,WNW,284,0.0,0.0,97,0.00,,,0.00,VWS V14.01,2013-06-11 09:37:00,
2013-06-11 04:42:00,56.5,55.7,29.81,WNW,284,0.0,0.0,97,0.00,,,0.00,VWS V14.01,2013-06-11 09:42:00,
2013-06-11 04:47:00,56.2,55.4,29.81,WNW,284,0.0,0.0,97,0.00,,,0.00,VWS V14.01,2013-06-11 09:47:00,
2013-06-11 04:52:00,56.0,55.5,29.81,WNW,284,0.0,0.0,98,0.00,,,0.00,VWS V14.01,2013-06-11 09:52:00,
2013-06-11 04:57:00,56.2,55.7,29.81,WNW,284,0.0,0.0,98,0.01,,,0.01,VWS V14.01,2013-06-11 09:57:00,
2013-06-11 05:02:00,56.3,55.8,29.81,WNW,284,0.0,0.0,98,0.01,,,0.01,VWS V14.01,2013-06-11 10:02:00,
2013-06-11 05:07:00,56.4,55.8,29.82,West,266,0.0,1.0,98,0.01,,,0.01,VWS V14.01,2013-06-11 10:07:00,
2013-06-11 05:12:00,56.3,55.8,29.82,West,266,0.0,1.0,98,0.01,,,0.01,VWS V14.01,2013-06-11 10:12:00,
2013-06-11 05:17:00,56.4,55.8,29.82,West,266,0.0,1.0,98,0.01,,,0.01,VWS V14.01,2013-06-11 10:17:00,
2013-06-11 05:22:00,56.5,55.9,29.82,West,269,0.0,1.0,98,0.01,,,0.01,VWS V14.01,2013-06-11 10:22:00,
2013-06-11 05:27:00,56.4,55.8,29.82,West,269,0.0,1.0,98,0.01,,,0.01,VWS V14.01,2013-06-11 10:27:00,
2013-06-11 05:32:00,56.2,55.7,29.82,West,269,0.0,0.0,98,0.01,,,0.01,VWS V14.01,2013-06-11 10:32:00,
2013-06-11 05:37:00,56.2,55.7,29.82,West,269,0.0,0.0,98,0.01,,,0.01,VWS V14.01,2013-06-11 10:37:00,
2013-06-11 05:42:00,56.2,55.7,29.82,West,269,0.0,0.0,98,0.01,,,0.01,VWS V14.01,2013-06-11 10:42:00,
2013-06-11 05:47:00,56.2,55.7,29.82,West,269,0.0,0.0,98,0.01,,,0.01,VWS V14.01,2013-06-11 10:47:00,
2013-06-11 05:52:00,56.5,55.9,29.82,West,269,0.0,0.0,98,0.01,,,0.01,VWS V14.01,2013-06-11 10:52:00,
2013-06-11 05:57:00,56.7,56.1,29.83,West,269,0.0,0.0,98,0.01,,,0.01,VWS V14.01,2013-06-11 10:57:00,
2013-06-11 06:02:00,56.7,56.1,29.83,West,269,0.0,0.0,98,0.00,,,0.01,VWS V14.01,2013-06-11 11:02:00,
2013-06-11 06:07:00,56.9,56.3,29.83,West,269,0.0,0.0,98,0.00,,,0.01,VWS V14.01,2013-06-11 11:07:00,
2013-06-11 06:12:00,57.2,56.6,29.83,West,269,0.0,0.0,98,0.00,,,0.01,VWS V14.01,2013-06-11 11:12:00,
2013-06-11 06:17:00,57.8,57.2,29.83,West,269,0.0,0.0,98,0.00,,,0.01,VWS V14.01,2013-06-11 11:17:00,
2013-06-11 06:22:00,57.7,56.9,29.82,West,269,0.0,0.0,97,0.00,,,0.01,VWS V14.01,2013-06-11 11:22:00,
2013-06-11 06:27:00,58.1,57.5,29.82,ENE,71,1.0,2.0,98,0.00,,,0.01,VWS V14.01,2013-06-11 11:27:00,
2013-06-11 06:32:00,58.4,57.8,29.82,East,100,1.0,2.0,98,0.00,,,0.01,VWS V14.01,2013-06-11 11:32:00,
2013-06-11 06:37:00,58.7,58.1,29.83,East,100,0.0,2.0,98,0.00,,,0.01,VWS V14.01,2013-06-11 11:37:00,
2013-06-11 06:42:00,59.2,58.6,29.83,East,100,0.0,2.0,98,0.00,,,0.01,VWS V14.01,2013-06-11 11:42:00,
2013-06-11 06:47:00,59.2,58.3,29.83,East,100,1.0,2.0,97,0.00,,,0.01,VWS V14.01,2013-06-11 11:47:00,
2013-06-11 06:52:00,58.8,58.0,29.83,East,100,1.0,2.0,97,0.00,,,0.01,VWS V14.01,2013-06-11 11:52:00,
2013-06-11 06:57:00,58.9,58.0,29.83,East,101,0.0,2.0,97,0.00,,,0.01,VWS V14.01,2013-06-11 11:57:00,
2013-06-11 07:02:00,59.4,58.8,29.82,East,101,0.0,1.0,98,0.00,,,0.01,VWS V14.01,2013-06-11 12:02:00,
2013-06-11 07:07:00,59.7,58.8,29.82,East,101,1.0,2.0,97,0.00,,,0.01,VWS V14.01,2013-06-11 12:07:00,
2013-06-11 07:12:00,59.7,58.8,29.83,ESE,105,1.0,2.0,97,0.00,,,0.01,VWS V14.01,2013-06-11 12:12:00,
2013-06-11 07:17:00,59.9,59.0,29.83,ESE,106,1.0,2.0,97,0.00,,,0.01,VWS V14.01,2013-06-11 12:17:00,
2013-06-11 07:22:00,60.2,59.3,29.82,ESE,105,1.0,2.0,97,0.00,,,0.01,VWS V14.01,2013-06-11 12:22:00,
2013-06-11 07:27:00,60.5,59.7,29.82,East,94,2.0,2.0,97,0.00,,,0.01,VWS V14.01,2013-06-11 12:27:00,
2013-06-11 07:32:00,61.1,60.2,29.82,ESE,113,1.0,2.0,97,0.00,,SCT110,0.01,VWS V14.01,2013-06-11 12:32:00,
2013-06-11 07:37:00,61.9,61.3,29.82,ESE,113,0.0,2.0,98,0.00,,SCT110,0.01,VWS V14.01,2013-06-11 12:37:00,
2013-06-11 07:42:00,62.8,61.9,29.82,ESE,113,0.0,2.0,97,0.00,,SCT110,0.01,VWS V14.01,2013-06-11 12:42:00,
2013-06-11 07:47:00,63.2,62.0,29.82,ESE,107,0.0,2.0,96,0.00,,SCT110,0.01,VWS V14.01,2013-06-11 12:47:00,
2013-06-11 07:52:00,63.3,61.8,29.81,SE,133,0.0,2.0,95,0.00,,,0.01,VWS V14.01,2013-06-11 12:52:00,
2013-06-11 07:57:00,63.3,61.8,29.81,ESE,116,1.0,2.0,95,0.00,,,0.01,VWS V14.01,2013-06-11 12:57:00,
2013-06-11 08:02:00,63.3,61.8,29.81,East,93,1.0,2.0,95,0.00,,,0.01,VWS V14.01,2013-06-11 13:02:00,
2013-06-11 08:07:00,63.5,62.0,29.82,East,93,1.0,2.0,95,0.00,,,0.01,VWS V14.01,2013-06-11 13:07:00,
2013-06-11 08:12:00,63.5,62.0,29.82,East,93,0.0,2.0,95,0.00,,,0.01,VWS V14.01,2013-06-11 13:12:00,
2013-06-11 08:17:00,63.7,62.2,29.82,East,93,0.0,2.0,95,0.00,,,0.01,VWS V14.01,2013-06-11 13:17:00,
2013-06-11 08:22:00,63.8,62.0,29.81,East,85,3.0,3.0,94,0.00,,,0.01,VWS V14.01,2013-06-11 13:22:00,
2013-06-11 08:27:00,63.8,62.0,29.81,ESE,107,1.0,4.0,94,0.00,,,0.01,VWS V14.01,2013-06-11 13:27:00,
2013-06-11 08:32:00,64.1,62.3,29.82,ESE,108,0.0,0.0,94,0.00,,CLR,0.01,VWS V14.01,2013-06-11 13:32:00,
2013-06-11 08:37:00,64.8,63.3,29.82,ESE,107,0.0,1.0,95,0.00,,CLR,0.01,VWS V14.01,2013-06-11 13:37:00,
2013-06-11 08:42:00,65.4,63.3,29.81,ESE,112,1.0,2.0,93,0.00,,CLR,0.01,VWS V14.01,2013-06-11 13:42:00,
2013-06-11 08:47:00,65.9,63.5,29.80,East,98,2.0,3.0,92,0.00,,CLR,0.01,VWS V14.01,2013-06-11 13:47:00,
2013-06-11 08:52:00,66.4,64.0,29.80,ESE,114,1.0,3.0,92,0.00,,CLR,0.01,VWS V14.01,2013-06-11 13:52:00,
2013-06-11 08:57:00,67.1,64.4,29.81,ESE,113,1.0,3.0,91,0.00,,CLR,0.01,VWS V14.01,2013-06-11 13:57:00,
2013-06-11 09:02:00,67.7,64.7,29.82,ESE,113,0.0,1.0,90,0.00,,CLR,0.01,VWS V14.01,2013-06-11 14:02:00,
2013-06-11 09:07:00,68.1,64.7,29.82,West,259,0.0,1.0,89,0.00,,CLR,0.01,VWS V14.01,2013-06-11 14:07:00,
2013-06-11 09:12:00,68.6,65.2,29.82,West,274,0.0,2.0,89,0.00,,CLR,0.01,VWS V14.01,2013-06-11 14:12:00,
2013-06-11 09:17:00,69.2,65.5,29.83,WSW,252,3.0,3.0,88,0.00,,CLR,0.01,VWS V14.01,2013-06-11 14:17:00,
2013-06-11 09:22:00,69.4,65.4,29.83,West,266,3.0,3.0,87,0.00,,CLR,0.01,VWS V14.01,2013-06-11 14:22:00,
2013-06-11 09:27:00,69.2,64.8,29.82,WSW,245,1.0,3.0,86,0.00,,CLR,0.01,VWS V14.01,2013-06-11 14:27:00,
2013-06-11 09:32:00,69.5,65.5,29.83,West,267,1.0,2.0,87,0.00,,CLR,0.01,VWS V14.01,2013-06-11 14:32:00,
2013-06-11 09:37:00,69.6,65.2,29.83,West,281,3.0,5.0,86,0.00,,CLR,0.01,VWS V14.01,2013-06-11 14:37:00,
2013-06-11 09:42:00,69.8,65.4,29.83,West,274,1.0,5.0,86,0.00,,CLR,0.01,VWS V14.01,2013-06-11 14:42:00,
2013-06-11 09:47:00,69.9,65.2,29.84,West,273,6.0,7.0,85,0.00,,CLR,0.01,VWS V14.01,2013-06-11 14:47:00,
2013-06-11 09:52:00,70.0,64.9,29.83,West,274,6.0,10.0,84,0.00,,CLR,0.01,VWS V14.01,2013-06-11 14:52:00,
2013-06-11 09:57:00,69.9,65.2,29.83,WSW,246,2.0,10.0,85,0.00,,CLR,0.01,VWS V14.01,2013-06-11 14:57:00,
2013-06-11 10:02:00,70.0,65.3,29.83,WSW,250,6.0,6.0,85,0.00,,CLR,0.01,VWS V14.01,2013-06-11 15:02:00,
2013-06-11 10:07:00,70.0,64.9,29.83,SW,218,4.0,7.0,84,0.00,,CLR,0.01,VWS V14.01,2013-06-11 15:07:00,
2013-06-11 10:12:00,70.2,65.1,29.83,WNW,284,2.0,7.0,84,0.00,,CLR,0.01,VWS V14.01,2013-06-11 15:12:00,
2013-06-11 10:17:00,70.4,65.7,29.83,West,278,3.0,7.0,85,0.00,,CLR,0.01,VWS V14.01,2013-06-11 15:17:00,
2013-06-11 10:22:00,70.3,65.2,29.82,WNW,285,2.0,7.0,84,0.00,,CLR,0.01,VWS V14.01,2013-06-11 15:22:00,
2013-06-11 10:27:00,70.7,65.6,29.83,WNW,297,0.0,7.0,84,0.00,,CLR,0.01,VWS V14.01,2013-06-11 15:27:00,
2013-06-11 10:32:00,71.1,66.0,29.82,WNW,284,1.0,2.0,84,0.00,,SCT012,0.01,VWS V14.01,2013-06-11 15:32:00,
2013-06-11 10:37:00,71.5,66.1,29.81,NW,311,0.0,3.0,83,0.00,,SCT012,0.01,VWS V14.01,2013-06-11 15:37:00,
2013-06-11 10:42:00,71.5,65.4,29.81,WSW,257,0.0,3.0,81,0.00,,SCT012,0.01,VWS V14.01,2013-06-11 15:42:00,
2013-06-11 10:47:00,71.4,65.6,29.81,WNW,285,0.0,4.0,82,0.00,,SCT012,0.01,VWS V14.01,2013-06-11 15:47:00,
2013-06-11 10:52:00,71.8,65.7,29.82,NW,316,0.0,4.0,81,0.00,,CLR,0.01,VWS V14.01,2013-06-11 15:52:00,
2013-06-11 10:57:00,72.6,66.4,29.82,NW,316,0.0,4.0,81,0.00,,CLR,0.01,VWS V14.01,2013-06-11 15:57:00,
2013-06-11 11:02:00,72.7,65.8,29.82,WNW,297,2.0,2.0,79,0.00,,CLR,0.01,VWS V14.01,2013-06-11 16:02:00,
2013-06-11 11:07:00,72.6,66.1,29.82,WSW,256,1.0,2.0,80,0.00,,CLR,0.01,VWS V14.01,2013-06-11 16:07:00,
2013-06-11 11:12:00,73.0,66.1,29.82,WSW,252,1.0,3.0,79,0.00,,CLR,0.01,VWS V14.01,2013-06-11 16:12:00,
2013-06-11 11:17:00,73.2,66.7,29.82,WSW,244,3.0,3.0,80,0.00,,CLR,0.01,VWS V14.01,2013-06-11 16:17:00,
2013-06-11 11:22:00,73.8,66.9,29.82,NW,310,1.0,3.0,79,0.00,,CLR,0.01,VWS V14.01,2013-06-11 16:22:00,
2013-06-11 11:27:00,74.2,67.3,29.82,SW,224,1.0,3.0,79,0.00,,CLR,0.01,VWS V14.01,2013-06-11 16:27:00,
2013-06-11 11:32:00,74.3,66.2,29.82,West,260,2.0,5.0,76,0.00,,SCT014,0.01,VWS V14.01,2013-06-11 16:32:00,
2013-06-11 11:37:00,74.2,65.8,29.82,SE,131,1.0,5.0,75,0.00,,SCT014,0.01,VWS V14.01,2013-06-11 16:37:00,
2013-06-11 11:42:00,74.6,66.5,29.82,SW,214,2.0,5.0,76,0.00,,SCT014,0.01,VWS V14.01,2013-06-11 16:42:00,
2013-06-11 11:47:00,75.2,66.3,29.81,WNW,302,2.0,5.0,74,0.00,,SCT014,0.01,VWS V14.01,2013-06-11 16:47:00,
2013-06-11 11:52:00,75.6,66.7,29.81,SW,229,3.0,5.0,74,0.00,,SCT014,0.01,VWS V14.01,2013-06-11 16:52:00,
2013-06-11 11:57:00,76.2,66.9,29.80,North,349,2.0,5.0,73,0.00,,SCT014,0.01,VWS V14.01,2013-06-11 16:57:00,
2013-06-11 12:02:00,76.8,66.3,29.80,ESE,103,2.0,3.0,70,0.00,,SCT014,0.01,VWS V14.01,2013-06-11 17:02:00,
2013-06-11 12:07:00,76.2,66.1,29.79,East,81,3.0,3.0,71,0.00,,SCT014,0.01,VWS V14.01,2013-06-11 17:07:00,
2013-06-11 12:12:00,76.0,66.3,29.79,SE,132,1.0,3.0,72,0.00,,SCT014,0.01,VWS V14.01,2013-06-11 17:12:00,
2013-06-11 12:17:00,76.2,66.1,29.79,ESE,113,1.0,3.0,71,0.00,,SCT014,0.01,VWS V14.01,2013-06-11 17:17:00,
2013-06-11 12:22:00,76.5,66.0,29.80,ESE,117,0.0,3.0,70,0.00,,SCT014,0.01,VWS V14.01,2013-06-11 17:22:00,
2013-06-11 12:27:00,76.9,66.4,29.80,NNW,336,1.0,3.0,70,0.00,,SCT014,0.01,VWS V14.01,2013-06-11 17:27:00,
2013-06-11 12:32:00,77.3,66.3,29.80,NE,38,0.0,2.0,69,0.00,,SCT070,0.01,VWS V14.01,2013-06-11 17:32:00,
2013-06-11 12:37:00,78.1,67.5,29.80,West,259,2.0,2.0,70,0.00,,SCT016,0.01,VWS V14.01,2013-06-11 17:37:00,
2013-06-11 12:42:00,78.6,67.6,29.80,WNW,296,0.0,2.0,69,0.00,,SCT016,0.01,VWS V14.01,2013-06-11 17:42:00,
2013-06-11 12:47:00,78.7,66.4,29.79,SE,140,1.0,3.0,66,0.00,,SCT016,0.01,VWS V14.01,2013-06-11 17:47:00,
2013-06-11 12:52:00,78.8,67.4,29.79,SE,129,0.0,3.0,68,0.00,,CLR,0.01,VWS V14.01,2013-06-11 17:52:00,
2013-06-11 12:57:00,79.4,68.3,29.79,SE,126,1.0,3.0,69,0.00,,CLR,0.01,VWS V14.01,2013-06-11 17:57:00,
2013-06-11 13:02:00,79.8,66.6,29.79,West,281,2.0,4.0,64,0.00,,CLR,0.01,VWS V14.01,2013-06-11 18:02:00,
2013-06-11 13:07:00,79.4,66.6,29.79,West,263,0.0,4.0,65,0.00,,CLR,0.01,VWS V14.01,2013-06-11 18:07:00,
2013-06-11 13:12:00,79.6,66.8,29.78,ENE,61,2.0,4.0,65,0.00,,CLR,0.01,VWS V14.01,2013-06-11 18:12:00,
2013-06-11 13:17:00,79.2,68.2,29.78,NNW,335,0.0,4.0,69,0.00,,SCT070,0.01,VWS V14.01,2013-06-11 18:17:00,
2013-06-11 13:22:00,79.8,67.9,29.78,ENE,63,1.0,4.0,67,0.00,,CLR,0.01,VWS V14.01,2013-06-11 18:22:00,
2013-06-11 13:27:00,79.6,67.2,29.77,East,92,2.0,4.0,66,0.00,,CLR,0.01,VWS V14.01,2013-06-11 18:27:00,
2013-06-11 13:32:00,78.7,67.3,29.78,ESE,117,1.0,6.0,68,0.00,,BKN024,0.01,VWS V14.01,2013-06-11 18:32:00,
2013-06-11 13:37:00,78.5,67.5,29.79,SSW,212,0.0,6.0,69,0.00,,BKN024,0.01,VWS V14.01,2013-06-11 18:37:00,
2013-06-11 13:42:00,79.5,68.0,29.78,WNW,294,0.0,6.0,68,0.00,,BKN024,0.01,VWS V14.01,2013-06-11 18:42:00,
2013-06-11 13:47:00,79.4,66.6,29.79,NW,311,1.0,6.0,65,0.00,,BKN024,0.01,VWS V14.01,2013-06-11 18:47:00,
2013-06-11 13:52:00,79.0,67.6,29.80,WSW,245,2.0,6.0,68,0.00,,SCT028,0.01,VWS V14.01,2013-06-11 18:52:00,
2013-06-11 13:57:00,79.4,67.5,29.80,NW,325,1.0,6.0,67,0.00,,SCT028,0.01,VWS V14.01,2013-06-11 18:57:00,
2013-06-11 14:02:00,79.1,66.8,29.81,WSW,240,5.0,5.0,66,0.00,,SCT028,0.01,VWS V14.01,2013-06-11 19:02:00,
2013-06-11 14:07:00,78.4,66.1,29.81,WNW,301,2.0,5.0,66,0.00,,SCT028,0.01,VWS V14.01,2013-06-11 19:07:00,
2013-06-11 14:12:00,78.1,66.7,29.81,WNW,284,1.0,5.0,68,0.00,,SCT028,0.01,VWS V14.01,2013-06-11 19:12:00,
2013-06-11 14:17:00,77.9,66.5,29.80,WNW,290,2.0,5.0,68,0.00,,SCT028,0.01,VWS V14.01,2013-06-11 19:17:00,
2013-06-11 14:22:00,77.6,66.6,29.80,West,264,2.0,5.0,69,0.00,,SCT028,0.01,VWS V14.01,2013-06-11 19:22:00,
2013-06-11 14:27:00,77.6,66.6,29.79,WNW,294,2.0,5.0,69,0.00,,SCT028,0.01,VWS V14.01,2013-06-11 19:27:00,
2013-06-11 14:32:00,77.7,66.7,29.81,WNW,302,3.0,3.0,69,0.00,,OVC030,0.01,VWS V14.01,2013-06-11 19:32:00,
2013-06-11 14:37:00,77.7,66.7,29.80,WNW,288,0.0,3.0,69,0.00,,OVC030,0.01,VWS V14.01,2013-06-11 19:37:00,
2013-06-11 14:42:00,77.9,67.3,29.79,WNW,285,1.0,3.0,70,0.00,,OVC030,0.01,VWS V14.01,2013-06-11 19:42:00,
2013-06-11 14:47:00,78.1,66.7,29.78,WNW,283,0.0,3.0,68,0.00,,OVC030,0.01,VWS V14.01,2013-06-11 19:47:00,
2013-06-11 14:52:00,78.1,67.9,29.78,NE,34,0.0,3.0,71,0.00,,SCT065,0.01,VWS V14.01,2013-06-11 19:52:00,
2013-06-11 14:57:00,78.0,67.0,29.78,West,266,0.0,4.0,69,0.00,,SCT065,0.01,VWS V14.01,2013-06-11 19:57:00,
2013-06-11 15:02:00,78.0,67.4,29.78,NW,315,0.0,2.0,70,0.00,,SCT065,0.01,VWS V14.01,2013-06-11 20:02:00,
2013-06-11 15:08:00,77.9,67.3,29.78,NW,305,1.0,2.0,70,0.00,,SCT065,0.01,VWS V14.01,2013-06-11 20:08:00,
2013-06-11 15:13:00,77.8,67.2,29.77,WNW,285,0.0,2.0,70,0.00,,SCT065,0.01,VWS V14.01,2013-06-11 20:13:00,
2013-06-11 15:18:00,77.8,66.8,29.77,WNW,294,1.0,2.0,69,0.00,,SCT065,0.01,VWS V14.01,2013-06-11 20:18:00,
2013-06-11 15:23:00,77.4,66.4,29.78,West,276,1.0,2.0,69,0.00,,SCT065,0.01,VWS V14.01,2013-06-11 20:23:00,
2013-06-11 15:27:00,77.2,66.7,29.78,WNW,284,0.0,2.0,70,0.00,,SCT065,0.01,VWS V14.01,2013-06-11 20:27:00,
2013-06-11 15:32:00,77.0,66.5,29.78,NNW,336,0.0,1.0,70,0.00,,SCT036,0.01,VWS V14.01,2013-06-11 20:32:00,
2013-06-11 15:37:00,76.8,66.3,29.79,WNW,289,0.0,1.0,70,0.00,,SCT036,0.01,VWS V14.01,2013-06-11 20:37:00,
2013-06-11 15:42:00,76.9,67.6,29.78,East,79,0.0,2.0,73,0.00,,SCT036,0.01,VWS V14.01,2013-06-11 20:42:00,
2013-06-11 15:47:00,76.9,66.8,29.78,North,6,0.0,2.0,71,0.00,,SCT036,0.01,VWS V14.01,2013-06-11 20:47:00,
2013-06-11 15:52:00,77.0,67.3,29.78,NE,44,1.0,3.0,72,0.00,,SCT038,0.01,VWS V14.01,2013-06-11 20:52:00,
2013-06-11 15:57:00,76.7,67.0,29.77,NNW,338,0.0,3.0,72,0.00,,SCT038,0.01,VWS V14.01,2013-06-11 20:57:00,
2013-06-11 16:02:00,76.7,67.0,29.78,WNW,285,1.0,2.0,72,0.00,,SCT038,0.01,VWS V14.01,2013-06-11 21:02:00,
2013-06-11 16:08:00,77.2,67.5,29.79,West,276,1.0,3.0,72,0.00,,SCT038,0.01,VWS V14.01,2013-06-11 21:08:00,
2013-06-11 16:13:00,77.4,66.9,29.80,NW,310,0.0,4.0,70,0.00,,SCT038,0.01,VWS V14.01,2013-06-11 21:13:00,
2013-06-11 16:18:00,77.4,66.4,29.80,WSW,253,3.0,4.0,69,0.00,,SCT038,0.01,VWS V14.01,2013-06-11 21:18:00,
2013-06-11 16:23:00,77.2,66.7,29.80,WNW,293,1.0,4.0,70,0.00,,SCT038,0.01,VWS V14.01,2013-06-11 21:23:00,
2013-06-11 16:27:00,77.0,66.5,29.79,WNW,297,0.0,0.0,70,0.00,,SCT038,0.01,VWS V14.01,2013-06-11 21:27:00,
2013-06-11 16:32:00,76.6,66.9,29.80,WNW,297,1.0,2.0,72,0.00,,CLR,0.01,VWS V14.01,2013-06-11 21:32:00,
2013-06-11 16:37:00,76.3,66.6,29.81,WNW,282,2.0,3.0,72,0.00,,CLR,0.01,VWS V14.01,2013-06-11 21:37:00,
2013-06-11 16:42:00,76.3,67.0,29.79,NW,308,0.0,3.0,73,0.00,,CLR,0.01,VWS V14.01,2013-06-11 21:42:00,
2013-06-11 16:47:00,76.2,66.9,29.78,West,281,0.0,3.0,73,0.00,,CLR,0.01,VWS V14.01,2013-06-11 21:47:00,
2013-06-11 16:52:00,76.2,66.9,29.79,WNW,283,0.0,3.0,73,0.00,,CLR,0.01,VWS V14.01,2013-06-11 21:52:00,
2013-06-11 16:57:00,76.2,66.9,29.80,WNW,301,1.0,3.0,73,0.00,,CLR,0.01,VWS V14.01,2013-06-11 21:57:00,
2013-06-11 17:02:00,76.3,67.0,29.79,WNW,287,0.0,2.0,73,0.00,,CLR,0.01,VWS V14.01,2013-06-11 22:02:00,
2013-06-11 17:07:00,76.2,66.5,29.76,West,262,0.0,2.0,72,0.00,,CLR,0.01,VWS V14.01,2013-06-11 22:07:00,
2013-06-11 17:12:00,76.2,66.9,29.76,West,262,0.0,2.0,73,0.00,,CLR,0.01,VWS V14.01,2013-06-11 22:12:00,
2013-06-11 17:17:00,75.9,67.0,29.78,NNE,27,0.0,3.0,74,0.00,,CLR,0.01,VWS V14.01,2013-06-11 22:17:00,
2013-06-11 17:22:00,75.6,66.3,29.80,WNW,288,1.0,3.0,73,0.00,,CLR,0.01,VWS V14.01,2013-06-11 22:22:00,
2013-06-11 17:27:00,75.5,66.6,29.76,SE,142,1.0,3.0,74,0.00,,CLR,0.01,VWS V14.01,2013-06-11 22:27:00,
2013-06-11 17:32:00,75.2,66.3,29.76,ESE,120,0.0,1.0,74,0.00,,CLR,0.01,VWS V14.01,2013-06-11 22:32:00,
2013-06-11 17:37:00,75.0,66.6,29.78,NNW,338,0.0,1.0,75,0.00,,CLR,0.01,VWS V14.01,2013-06-11 22:37:00,
2013-06-11 17:42:00,74.9,66.8,29.78,NE,47,0.0,1.0,76,0.00,,CLR,0.01,VWS V14.01,2013-06-11 22:42:00,
2013-06-11 17:47:00,75.0,66.9,29.80,West,271,2.0,2.0,76,0.00,,CLR,0.01,VWS V14.01,2013-06-11 22:47:00,
2013-06-11 17:52:00,75.1,67.0,29.81,West,270,3.0,5.0,76,0.00,,CLR,0.01,VWS V14.01,2013-06-11 22:52:00,
2013-06-11 17:57:00,75.1,67.0,29.80,West,278,2.0,5.0,76,0.00,,CLR,0.01,VWS V14.01,2013-06-11 22:57:00,
2013-06-11 18:02:00,74.8,67.9,29.80,WNW,287,4.0,7.0,79,0.00,,CLR,0.01,VWS V14.01,2013-06-11 23:02:00,
2013-06-11 18:07:00,74.4,67.8,29.80,West,260,2.0,7.0,80,0.00,,CLR,0.01,VWS V14.01,2013-06-11 23:07:00,
2013-06-11 18:12:00,74.3,67.7,29.80,West,263,3.0,7.0,80,0.00,,CLR,0.01,VWS V14.01,2013-06-11 23:12:00,
2013-06-11 18:17:00,74.5,67.9,29.81,WSW,255,4.0,7.0,80,0.00,,CLR,0.01,VWS V14.01,2013-06-11 23:17:00,
2013-06-11 18:22:00,75.6,69.0,29.81,West,270,2.0,7.0,80,0.00,,CLR,0.01,VWS V14.01,2013-06-11 23:22:00,
2013-06-11 18:27:00,76.1,68.4,29.81,SW,228,5.0,9.0,77,0.00,,CLR,0.01,VWS V14.01,2013-06-11 23:27:00,
2013-06-11 18:32:00,76.1,68.4,29.81,WSW,253,4.0,10.0,77,0.00,,CLR,0.01,VWS V14.01,2013-06-11 23:32:00,
2013-06-11 18:37:00,76.4,68.7,29.81,WSW,256,2.0,10.0,77,0.00,,CLR,0.01,VWS V14.01,2013-06-11 23:37:00,
2013-06-11 18:42:00,76.3,68.2,29.81,WSW,257,3.0,10.0,76,0.00,,CLR,0.01,VWS V14.01,2013-06-11 23:42:00,
2013-06-11 18:47:00,75.5,68.2,29.81,West,277,2.0,10.0,78,0.00,,CLR,0.01,VWS V14.01,2013-06-11 23:47:00,
2013-06-11 18:52:00,74.9,67.9,29.81,WSW,253,2.0,10.0,79,0.00,,CLR,0.01,VWS V14.01,2013-06-11 23:52:00,
2013-06-11 18:57:00,75.0,68.4,29.81,West,267,7.0,10.0,80,0.00,,CLR,0.01,VWS V14.01,2013-06-11 23:57:00,
2013-06-11 19:02:00,75.3,68.0,29.81,SW,232,6.0,8.0,78,0.00,,CLR,0.01,VWS V14.01,2013-06-12 00:02:00,
2013-06-11 19:07:00,75.5,68.2,29.81,West,276,6.0,8.0,78,0.00,,CLR,0.01,VWS V14.01,2013-06-12 00:07:00,
2013-06-11 19:12:00,75.5,68.2,29.82,West,264,5.0,8.0,78,0.00,,CLR,0.01,VWS V14.01,2013-06-12 00:12:00,
2013-06-11 19:17:00,75.2,67.9,29.81,WNW,293,4.0,8.0,78,0.00,,CLR,0.01,VWS V14.01,2013-06-12 00:17:00,
2013-06-11 19:22:00,75.0,67.7,29.81,WSW,250,3.0,8.0,78,0.00,,CLR,0.01,VWS V14.01,2013-06-12 00:22:00,
2013-06-11 19:27:00,74.9,67.9,29.81,West,277,2.0,8.0,79,0.00,,CLR,0.01,VWS V14.01,2013-06-12 00:27:00,
2013-06-11 19:32:00,75.2,68.2,29.81,West,276,2.0,5.0,79,0.00,,CLR,0.01,VWS V14.01,2013-06-12 00:32:00,
2013-06-11 19:37:00,75.4,68.1,29.81,West,274,2.0,5.0,78,0.00,,CLR,0.01,VWS V14.01,2013-06-12 00:37:00,
2013-06-11 19:42:00,75.5,68.2,29.81,West,278,2.0,5.0,78,0.00,,CLR,0.01,VWS V14.01,2013-06-12 00:42:00,
2013-06-11 19:48:00,75.6,67.9,29.81,WNW,293,1.0,5.0,77,0.00,,CLR,0.01,VWS V14.01,2013-06-12 00:48:00,
2013-06-11 19:53:00,76.2,67.3,29.81,WNW,288,1.0,5.0,74,0.00,,CLR,0.01,VWS V14.01,2013-06-12 00:53:00,
2013-06-11 19:58:00,76.4,67.5,29.80,WNW,283,0.0,0.0,74,0.00,,CLR,0.01,VWS V14.01,2013-06-12 00:58:00,
2013-06-11 20:03:00,76.0,64.7,29.80,WNW,291,1.0,2.0,68,0.00,,CLR,0.01,VWS V14.01,2013-06-12 01:03:00,
2013-06-11 20:08:00,75.8,64.5,29.80,WNW,295,0.0,2.0,68,0.00,,CLR,0.01,VWS V14.01,2013-06-12 01:08:00,
2013-06-11 20:12:00,75.5,63.8,29.80,WNW,290,1.0,2.0,67,0.00,,CLR,0.01,VWS V14.01,2013-06-12 01:12:00,
2013-06-11 20:17:00,75.0,61.6,29.80,WNW,293,1.0,2.0,63,0.00,,CLR,0.01,VWS V14.01,2013-06-12 01:17:00,
2013-06-11 20:22:00,74.6,61.6,29.80,WNW,293,0.0,2.0,64,0.00,,CLR,0.01,VWS V14.01,2013-06-12 01:22:00,
2013-06-11 20:27:00,74.3,62.2,29.79,WNW,293,0.0,2.0,66,0.00,,CLR,0.01,VWS V14.01,2013-06-12 01:27:00,
2013-06-11 20:32:00,73.9,61.8,29.79,WNW,293,0.0,0.0,66,0.00,,CLR,0.01,VWS V14.01,2013-06-12 01:32:00,
2013-06-11 20:37:00,73.3,60.8,29.79,WNW,293,0.0,0.0,65,0.00,,CLR,0.01,VWS V14.01,2013-06-12 01:37:00,
2013-06-11 20:42:00,72.9,60.0,29.80,WNW,293,0.0,0.0,64,0.00,,CLR,0.01,VWS V14.01,2013-06-12 01:42:00,
2013-06-11 20:48:00,72.6,60.6,29.80,WNW,293,0.0,0.0,66,0.00,,CLR,0.01,VWS V14.01,2013-06-12 01:48:00,
2013-06-11 20:53:00,72.1,60.5,29.80,WNW,293,0.0,0.0,67,0.00,,CLR,0.01,VWS V14.01,2013-06-12 01:53:00,
2013-06-11 20:57:00,71.6,60.1,29.80,WNW,293,0.0,0.0,67,0.00,,CLR,0.01,VWS V14.01,2013-06-12 01:57:00,
2013-06-11 21:02:00,71.1,59.6,29.79,WNW,293,0.0,0.0,67,0.00,,CLR,0.01,VWS V14.01,2013-06-12 02:02:00,
2013-06-11 21:07:00,70.7,60.0,29.79,WNW,293,0.0,0.0,69,0.00,,CLR,0.01,VWS V14.01,2013-06-12 02:07:00,
2013-06-11 21:12:00,70.4,58.5,29.80,WNW,293,0.0,0.0,66,0.00,,CLR,0.01,VWS V14.01,2013-06-12 02:12:00,
2013-06-11 21:17:00,70.3,58.0,29.79,WNW,293,0.0,0.0,65,0.00,,CLR,0.01,VWS V14.01,2013-06-12 02:17:00,
2013-06-11 21:22:00,70.3,58.0,29.79,WNW,292,0.0,0.0,65,0.00,,CLR,0.01,VWS V14.01,2013-06-12 02:22:00,
2013-06-11 21:27:00,69.9,58.0,29.80,WNW,293,0.0,0.0,66,0.00,,CLR,0.01,VWS V14.01,2013-06-12 02:27:00,
2013-06-11 21:32:00,69.4,58.0,29.80,WNW,293,0.0,0.0,67,0.00,,CLR,0.01,VWS V14.01,2013-06-12 02:32:00,
2013-06-11 21:37:00,69.1,57.7,29.80,WNW,293,0.0,0.0,67,0.00,,CLR,0.01,VWS V14.01,2013-06-12 02:37:00,
2013-06-11 21:42:00,69.0,58.0,29.80,WNW,293,0.0,0.0,68,0.00,,CLR,0.01,VWS V14.01,2013-06-12 02:42:00,
2013-06-11 21:47:00,68.7,57.7,29.80,WNW,293,0.0,0.0,68,0.00,,CLR,0.01,VWS V14.01,2013-06-12 02:47:00,
2013-06-11 21:53:00,68.2,57.2,29.80,WNW,293,0.0,0.0,68,0.00,,CLR,0.01,VWS V14.01,2013-06-12 02:53:00,
2013-06-11 21:58:00,67.9,57.8,29.81,WNW,293,0.0,0.0,70,0.00,,CLR,0.01,VWS V14.01,2013-06-12 02:58:00,
2013-06-11 22:03:00,67.7,58.0,29.81,WNW,293,0.0,0.0,71,0.00,,CLR,0.01,VWS V14.01,2013-06-12 03:03:00,
2013-06-11 22:08:00,67.5,58.9,29.81,WNW,293,0.0,0.0,74,0.00,,CLR,0.01,VWS V14.01,2013-06-12 03:08:00,
2013-06-11 22:12:00,67.2,59.4,29.81,WNW,293,0.0,0.0,76,0.00,,CLR,0.01,VWS V14.01,2013-06-12 03:12:00,
2013-06-11 22:17:00,67.1,58.5,29.81,WNW,293,0.0,0.0,74,0.00,,CLR,0.01,VWS V14.01,2013-06-12 03:17:00,
2013-06-11 22:22:00,67.1,58.9,29.81,WNW,293,0.0,0.0,75,0.00,,CLR,0.01,VWS V14.01,2013-06-12 03:22:00,
2013-06-11 22:27:00,67.0,58.8,29.81,WNW,293,0.0,0.0,75,0.00,,CLR,0.01,VWS V14.01,2013-06-12 03:27:00,
2013-06-11 22:32:00,66.9,58.3,29.81,WNW,293,0.0,0.0,74,0.00,,CLR,0.01,VWS V14.01,2013-06-12 03:32:00,
2013-06-11 22:37:00,67.1,58.5,29.82,WNW,293,0.0,0.0,74,0.00,,CLR,0.01,VWS V14.01,2013-06-12 03:37:00,
2013-06-11 22:42:00,67.3,58.4,29.82,WNW,293,0.0,0.0,73,0.00,,CLR,0.01,VWS V14.01,2013-06-12 03:42:00,
2013-06-11 22:47:00,67.3,58.4,29.82,WNW,293,0.0,0.0,73,0.00,,CLR,0.01,VWS V14.01,2013-06-12 03:47:00,
2013-06-11 22:52:00,67.6,58.7,29.83,WNW,286,0.0,1.0,73,0.00,,SCT120,0.01,VWS V14.01,2013-06-12 03:52:00,
2013-06-11 22:57:00,68.1,58.7,29.83,WNW,290,0.0,2.0,72,0.00,,SCT120,0.01,VWS V14.01,2013-06-12 03:57:00,
2013-06-11 23:01:00,68.2,59.2,29.82,WNW,289,0.0,0.0,73,0.00,,SCT120,0.01,VWS V14.01,2013-06-12 04:01:00,
2013-06-11 23:02:00,68.1,58.7,29.82,WNW,290,0.0,0.0,72,0.00,,SCT120,0.01,VWS V14.01,2013-06-12 04:02:00,
2013-06-11 23:07:00,68.0,59.4,29.84,WNW,285,0.0,1.0,74,0.00,,SCT120,0.01,VWS V14.01,2013-06-12 04:07:00,
2013-06-11 23:12:00,68.1,59.1,29.84,WNW,285,1.0,2.0,73,0.00,,SCT120,0.01,VWS V14.01,2013-06-12 04:12:00,
2013-06-11 23:17:00,68.4,58.6,29.83,WNW,299,0.0,2.0,71,0.00,,SCT120,0.01,VWS V14.01,2013-06-12 04:17:00,
2013-06-11 23:22:00,68.6,57.6,29.82,NE,50,0.0,2.0,68,0.00,,SCT120,0.01,VWS V14.01,2013-06-12 04:22:00,
2013-06-11 23:27:00,68.7,57.7,29.83,WNW,286,1.0,2.0,68,0.00,,SCT120,0.01,VWS V14.01,2013-06-12 04:27:00,
2013-06-11 23:32:00,68.5,57.5,29.82,ENE,64,0.0,1.0,68,0.00,,BKN120,0.01,VWS V14.01,2013-06-12 04:32:00,
2013-06-11 23:37:00,68.5,57.1,29.82,ENE,64,0.0,1.0,67,0.00,,BKN120,0.01,VWS V14.01,2013-06-12 04:37:00,
2013-06-11 23:42:00,68.4,57.4,29.83,SSW,212,0.0,1.0,68,0.00,,BKN120,0.01,VWS V14.01,2013-06-12 04:42:00,
2013-06-11 23:47:00,68.3,57.8,29.83,WSW,245,1.0,1.0,69,0.00,,BKN120,0.01,VWS V14.01,2013-06-12 04:47:00,
2013-06-11 23:52:00,68.0,57.1,29.83,WSW,245,0.0,1.0,68,0.00,,,0.01,VWS V14.01,2013-06-12 04:52:00,
2013-06-11 23:57:00,67.9,56.5,29.83,WSW,245,0.0,1.0,67,0.00,,,0.01,VWS V14.01,2013-06-12 04:57:00,